sensor_id;sensor_type;location;lat;lon;timestamp;temperature;humidity
59208;DHT22;44977;53.132;6.408;2022-11-15T00:04:44;7.90;99.90
59208;DHT22;44977;53.132;6.408;2022-11-15T00:09:45;7.90;99.90
59208;DHT22;44977;53.132;6.408;2022-11-15T00:14:45;7.80;99.90
59208;DHT22;44977;53.132;6.408;2022-11-15T00:19:46;7.80;99.90
59208;DHT22;44977;53.132;6.408;2022-11-15T00:24:47;7.70;99.90
59208;DHT22;44977;53.132;6.408;2022-11-15T00:29:47;7.70;99.90
59208;DHT22;44977;53.132;6.408;2022-11-15T00:34:48;7.70;99.90
59208;DHT22;44977;53.132;6.408;2022-11-15T00:39:49;7.70;99.90
59208;DHT22;44977;53.132;6.408;2022-11-15T00:44:49;7.70;99.90
59208;DHT22;44977;53.132;6.408;2022-11-15T00:49:50;7.70;99.90
59208;DHT22;44977;53.132;6.408;2022-11-15T00:54:51;7.70;99.90
59208;DHT22;44977;53.132;6.408;2022-11-15T00:59:51;7.70;99.90
59208;DHT22;44977;53.132;6.408;2022-11-15T01:04:52;7.70;99.90
59208;DHT22;44977;53.132;6.408;2022-11-15T01:09:52;7.80;99.90
59208;DHT22;44977;53.132;6.408;2022-11-15T01:14:53;7.80;99.90
59208;DHT22;44977;53.132;6.408;2022-11-15T01:19:54;7.80;99.90
59208;DHT22;44977;53.132;6.408;2022-11-15T01:24:55;7.70;99.90
59208;DHT22;44977;53.132;6.408;2022-11-15T01:29:55;7.80;99.90
59208;DHT22;44977;53.132;6.408;2022-11-15T01:34:56;7.70;99.90
59208;DHT22;44977;53.132;6.408;2022-11-15T01:39:57;7.70;99.90
59208;DHT22;44977;53.132;6.408;2022-11-15T01:44:57;7.70;99.90
59208;DHT22;44977;53.132;6.408;2022-11-15T01:50:12;7.70;99.90
59208;DHT22;44977;53.132;6.408;2022-11-15T01:55:20;7.70;99.90
59208;DHT22;44977;53.132;6.408;2022-11-15T02:00:21;7.70;99.90
59208;DHT22;44977;53.132;6.408;2022-11-15T02:05:22;7.60;99.90
59208;DHT22;44977;53.132;6.408;2022-11-15T02:10:24;7.60;99.90
59208;DHT22;44977;53.132;6.408;2022-11-15T02:15:32;7.60;99.90
59208;DHT22;44977;53.132;6.408;2022-11-15T02:20:58;7.60;99.90
59208;DHT22;44977;53.132;6.408;2022-11-15T02:31:56;7.60;99.90
59208;DHT22;44977;53.132;6.408;2022-11-15T02:37:18;7.60;99.90
59208;DHT22;44977;53.132;6.408;2022-11-15T02:42:26;7.60;99.90
59208;DHT22;44977;53.132;6.408;2022-11-15T02:47:49;7.60;99.90
59208;DHT22;44977;53.132;6.408;2022-11-15T02:52:52;7.60;99.90
59208;DHT22;44977;53.132;6.408;2022-11-15T03:09:05;7.60;99.90
59208;DHT22;44977;53.132;6.408;2022-11-15T03:24:28;7.60;99.90
59208;DHT22;44977;53.132;6.408;2022-11-15T03:29:34;7.60;99.90
59208;DHT22;44977;53.132;6.408;2022-11-15T03:34:49;7.60;99.90
59208;DHT22;44977;53.132;6.408;2022-11-15T03:39:51;7.60;99.90
59208;DHT22;44977;53.132;6.408;2022-11-15T03:44:59;7.60;99.90
59208;DHT22;44977;53.132;6.408;2022-11-15T03:50:10;7.70;99.90
59208;DHT22;44977;53.132;6.408;2022-11-15T03:55:16;7.70;99.90
59208;DHT22;44977;53.132;6.408;2022-11-15T04:00:17;7.70;99.90
59208;DHT22;44977;53.132;6.408;2022-11-15T04:05:18;7.70;99.90
59208;DHT22;44977;53.132;6.408;2022-11-15T04:10:19;7.80;99.90
59208;DHT22;44977;53.132;6.408;2022-11-15T04:15:21;7.80;99.90
59208;DHT22;44977;53.132;6.408;2022-11-15T04:20:24;7.80;99.90
59208;DHT22;44977;53.132;6.408;2022-11-15T04:25:43;7.80;99.90
59208;DHT22;44977;53.132;6.408;2022-11-15T04:30:44;7.90;99.90
59208;DHT22;44977;53.132;6.408;2022-11-15T04:35:45;7.90;99.90
59208;DHT22;44977;53.132;6.408;2022-11-15T04:41:06;7.90;99.90
59208;DHT22;44977;53.132;6.408;2022-11-15T04:46:06;7.90;99.90
59208;DHT22;44977;53.132;6.408;2022-11-15T04:51:07;8.00;99.90
59208;DHT22;44977;53.132;6.408;2022-11-15T04:56:08;8.00;99.90
59208;DHT22;44977;53.132;6.408;2022-11-15T05:01:13;8.00;99.90
59208;DHT22;44977;53.132;6.408;2022-11-15T05:06:14;8.00;99.90
59208;DHT22;44977;53.132;6.408;2022-11-15T05:11:15;8.10;99.90
59208;DHT22;44977;53.132;6.408;2022-11-15T05:16:16;8.20;99.90
59208;DHT22;44977;53.132;6.408;2022-11-15T05:21:17;8.20;99.90
59208;DHT22;44977;53.132;6.408;2022-11-15T05:26:18;8.20;99.90
59208;DHT22;44977;53.132;6.408;2022-11-15T05:31:19;8.30;99.90
59208;DHT22;44977;53.132;6.408;2022-11-15T05:36:31;8.40;99.90
59208;DHT22;44977;53.132;6.408;2022-11-15T05:41:39;8.40;99.90
59208;DHT22;44977;53.132;6.408;2022-11-15T05:46:42;8.50;99.90
59208;DHT22;44977;53.132;6.408;2022-11-15T05:51:43;8.50;99.90
59208;DHT22;44977;53.132;6.408;2022-11-15T05:56:45;8.50;99.90
59208;DHT22;44977;53.132;6.408;2022-11-15T06:01:46;8.60;99.90
59208;DHT22;44977;53.132;6.408;2022-11-15T06:06:47;8.70;99.90
59208;DHT22;44977;53.132;6.408;2022-11-15T06:11:47;8.70;99.90
59208;DHT22;44977;53.132;6.408;2022-11-15T06:16:48;8.80;99.90
59208;DHT22;44977;53.132;6.408;2022-11-15T06:21:49;8.90;99.90
59208;DHT22;44977;53.132;6.408;2022-11-15T06:26:50;8.90;99.90
59208;DHT22;44977;53.132;6.408;2022-11-15T06:31:51;9.00;99.90
59208;DHT22;44977;53.132;6.408;2022-11-15T06:36:52;9.00;99.90
59208;DHT22;44977;53.132;6.408;2022-11-15T06:41:52;9.10;99.90
59208;DHT22;44977;53.132;6.408;2022-11-15T06:46:53;9.20;99.90
59208;DHT22;44977;53.132;6.408;2022-11-15T06:51:53;9.20;99.90
59208;DHT22;44977;53.132;6.408;2022-11-15T06:56:54;9.30;99.90
59208;DHT22;44977;53.132;6.408;2022-11-15T07:01:55;9.30;99.90
59208;DHT22;44977;53.132;6.408;2022-11-15T07:06:55;9.40;99.90
59208;DHT22;44977;53.132;6.408;2022-11-15T07:11:56;9.40;99.90
59208;DHT22;44977;53.132;6.408;2022-11-15T07:16:57;9.40;99.90
59208;DHT22;44977;53.132;6.408;2022-11-15T07:21:57;9.50;99.90
59208;DHT22;44977;53.132;6.408;2022-11-15T07:26:58;9.50;99.90
59208;DHT22;44977;53.132;6.408;2022-11-15T07:31:58;9.60;99.90
59208;DHT22;44977;53.132;6.408;2022-11-15T07:36:59;9.60;99.90
59208;DHT22;44977;53.132;6.408;2022-11-15T07:42:00;9.70;99.90
59208;DHT22;44977;53.132;6.408;2022-11-15T07:47:19;9.70;99.90
59208;DHT22;44977;53.132;6.408;2022-11-15T07:52:20;9.80;99.90
59208;DHT22;44977;53.132;6.408;2022-11-15T07:57:21;9.80;99.90
59208;DHT22;44977;53.132;6.408;2022-11-15T08:02:22;9.90;99.90
59208;DHT22;44977;53.132;6.408;2022-11-15T08:07:22;9.90;99.90
59208;DHT22;44977;53.132;6.408;2022-11-15T08:12:23;10.00;99.90
59208;DHT22;44977;53.132;6.408;2022-11-15T08:17:24;10.00;99.90
59208;DHT22;44977;53.132;6.408;2022-11-15T08:22:25;10.10;99.90
59208;DHT22;44977;53.132;6.408;2022-11-15T08:27:26;10.20;99.90
59208;DHT22;44977;53.132;6.408;2022-11-15T08:32:26;10.20;99.90
59208;DHT22;44977;53.132;6.408;2022-11-15T08:37:27;10.30;99.90
59208;DHT22;44977;53.132;6.408;2022-11-15T08:42:28;10.40;99.90
59208;DHT22;44977;53.132;6.408;2022-11-15T08:47:28;10.40;99.90
59208;DHT22;44977;53.132;6.408;2022-11-15T08:52:29;10.40;99.90
59208;DHT22;44977;53.132;6.408;2022-11-15T08:57:30;10.50;99.90
59208;DHT22;44977;53.132;6.408;2022-11-15T09:02:31;10.50;99.90
59208;DHT22;44977;53.132;6.408;2022-11-15T09:07:31;10.60;99.90
59208;DHT22;44977;53.132;6.408;2022-11-15T09:12:32;10.60;99.90
59208;DHT22;44977;53.132;6.408;2022-11-15T09:17:33;10.70;99.90
59208;DHT22;44977;53.132;6.408;2022-11-15T09:22:33;10.70;99.90
59208;DHT22;44977;53.132;6.408;2022-11-15T09:27:34;10.80;99.90
59208;DHT22;44977;53.132;6.408;2022-11-15T09:32:35;10.90;99.90
59208;DHT22;44977;53.132;6.408;2022-11-15T09:37:36;10.90;99.90
59208;DHT22;44977;53.132;6.408;2022-11-15T09:42:52;11.00;99.90
59208;DHT22;44977;53.132;6.408;2022-11-15T09:53:13;11.10;99.90
59208;DHT22;44977;53.132;6.408;2022-11-15T10:03:55;11.20;99.90
59208;DHT22;44977;53.132;6.408;2022-11-15T10:09:04;11.20;99.90
59208;DHT22;44977;53.132;6.408;2022-11-15T10:14:13;11.20;99.90
59208;DHT22;44977;53.132;6.408;2022-11-15T10:19:38;11.30;99.90
59208;DHT22;44977;53.132;6.408;2022-11-15T10:24:42;11.30;99.90
59208;DHT22;44977;53.132;6.408;2022-11-15T10:29:48;11.40;99.90
59208;DHT22;44977;53.132;6.408;2022-11-15T10:34:50;11.50;99.90
59208;DHT22;44977;53.132;6.408;2022-11-15T10:40:05;11.60;99.90
59208;DHT22;44977;53.132;6.408;2022-11-15T10:45:31;11.60;99.90
59208;DHT22;44977;53.132;6.408;2022-11-15T10:50:32;11.70;99.90
59208;DHT22;44977;53.132;6.408;2022-11-15T10:55:33;11.70;99.90
59208;DHT22;44977;53.132;6.408;2022-11-15T11:00:38;11.80;99.90
59208;DHT22;44977;53.132;6.408;2022-11-15T11:05:42;11.80;99.90
59208;DHT22;44977;53.132;6.408;2022-11-15T11:10:57;11.90;99.90
59208;DHT22;44977;53.132;6.408;2022-11-15T11:21:14;11.90;99.90
59208;DHT22;44977;53.132;6.408;2022-11-15T11:32:04;12.00;99.90
59208;DHT22;44977;53.132;6.408;2022-11-15T11:48:14;12.20;99.90
59208;DHT22;44977;53.132;6.408;2022-11-15T11:53:28;12.30;99.90
59208;DHT22;44977;53.132;6.408;2022-11-15T12:03:46;12.30;99.90
59208;DHT22;44977;53.132;6.408;2022-11-15T12:09:04;12.30;99.90
59208;DHT22;44977;53.132;6.408;2022-11-15T12:14:16;12.40;99.90
59208;DHT22;44977;53.132;6.408;2022-11-15T12:19:20;12.30;99.90
59208;DHT22;44977;53.132;6.408;2022-11-15T12:29:52;12.30;99.90
59208;DHT22;44977;53.132;6.408;2022-11-15T12:34:54;12.30;99.90
59208;DHT22;44977;53.132;6.408;2022-11-15T12:45:34;12.30;99.90
59208;DHT22;44977;53.132;6.408;2022-11-15T13:06:40;12.40;99.90
59208;DHT22;44977;53.132;6.408;2022-11-15T13:11:46;12.30;99.90
59208;DHT22;44977;53.132;6.408;2022-11-15T13:16:48;12.40;99.90
59208;DHT22;44977;53.132;6.408;2022-11-15T13:21:49;12.40;99.90
59208;DHT22;44977;53.132;6.408;2022-11-15T13:27:18;12.40;99.90
59208;DHT22;44977;53.132;6.408;2022-11-15T13:32:19;12.40;99.90
59208;DHT22;44977;53.132;6.408;2022-11-15T13:42:21;12.30;99.90
59208;DHT22;44977;53.132;6.408;2022-11-15T13:47:25;12.30;99.90
59208;DHT22;44977;53.132;6.408;2022-11-15T13:52:34;12.30;99.90
59208;DHT22;44977;53.132;6.408;2022-11-15T13:57:44;12.30;99.90
59208;DHT22;44977;53.132;6.408;2022-11-15T14:02:45;12.20;99.90
59208;DHT22;44977;53.132;6.408;2022-11-15T14:07:58;12.20;99.90
59208;DHT22;44977;53.132;6.408;2022-11-15T14:12:59;12.20;99.90
59208;DHT22;44977;53.132;6.408;2022-11-15T14:18:01;12.20;99.90
59208;DHT22;44977;53.132;6.408;2022-11-15T14:23:25;12.10;99.90
59208;DHT22;44977;53.132;6.408;2022-11-15T14:33:33;12.00;99.90
59208;DHT22;44977;53.132;6.408;2022-11-15T14:38:34;12.00;99.90
59208;DHT22;44977;53.132;6.408;2022-11-15T14:43:35;11.90;99.90
59208;DHT22;44977;53.132;6.408;2022-11-15T14:48:35;11.80;99.90
59208;DHT22;44977;53.132;6.408;2022-11-15T14:53:36;11.80;99.90
59208;DHT22;44977;53.132;6.408;2022-11-15T14:58:37;11.70;99.90
59208;DHT22;44977;53.132;6.408;2022-11-15T15:03:38;11.60;99.90
59208;DHT22;44977;53.132;6.408;2022-11-15T15:08:40;11.60;99.90
59208;DHT22;44977;53.132;6.408;2022-11-15T15:13:40;11.40;99.90
59208;DHT22;44977;53.132;6.408;2022-11-15T15:18:41;11.40;99.90
59208;DHT22;44977;53.132;6.408;2022-11-15T15:23:42;11.30;99.90
59208;DHT22;44977;53.132;6.408;2022-11-15T15:28:42;11.20;99.90
59208;DHT22;44977;53.132;6.408;2022-11-15T15:33:43;11.20;99.90
59208;DHT22;44977;53.132;6.408;2022-11-15T15:38:45;11.10;99.90
59208;DHT22;44977;53.132;6.408;2022-11-15T15:43:47;11.00;99.90
59208;DHT22;44977;53.132;6.408;2022-11-15T15:48:48;11.00;99.90
59208;DHT22;44977;53.132;6.408;2022-11-15T15:53:48;11.00;99.90
59208;DHT22;44977;53.132;6.408;2022-11-15T15:58:50;10.90;99.90
59208;DHT22;44977;53.132;6.408;2022-11-15T16:03:52;10.90;99.90
59208;DHT22;44977;53.132;6.408;2022-11-15T16:08:53;10.80;99.90
59208;DHT22;44977;53.132;6.408;2022-11-15T16:13:54;10.80;99.90
59208;DHT22;44977;53.132;6.408;2022-11-15T16:18:54;10.80;99.90
59208;DHT22;44977;53.132;6.408;2022-11-15T16:23:55;10.70;99.90
59208;DHT22;44977;53.132;6.408;2022-11-15T16:28:56;10.70;99.90
59208;DHT22;44977;53.132;6.408;2022-11-15T16:33:57;10.60;99.90
59208;DHT22;44977;53.132;6.408;2022-11-15T16:38:59;10.60;99.90
59208;DHT22;44977;53.132;6.408;2022-11-15T16:44:00;10.60;99.90
59208;DHT22;44977;53.132;6.408;2022-11-15T16:49:01;10.60;99.90
59208;DHT22;44977;53.132;6.408;2022-11-15T16:54:04;10.60;99.90
59208;DHT22;44977;53.132;6.408;2022-11-15T16:59:05;10.60;99.90
59208;DHT22;44977;53.132;6.408;2022-11-15T17:04:05;10.60;99.90
59208;DHT22;44977;53.132;6.408;2022-11-15T17:09:20;10.70;99.90
59208;DHT22;44977;53.132;6.408;2022-11-15T17:14:24;10.70;99.90
59208;DHT22;44977;53.132;6.408;2022-11-15T17:19:25;10.70;99.90
59208;DHT22;44977;53.132;6.408;2022-11-15T17:24:25;10.70;99.90
59208;DHT22;44977;53.132;6.408;2022-11-15T17:29:26;10.70;99.90
59208;DHT22;44977;53.132;6.408;2022-11-15T17:34:27;10.70;99.90
59208;DHT22;44977;53.132;6.408;2022-11-15T17:39:27;10.80;99.90
59208;DHT22;44977;53.132;6.408;2022-11-15T17:44:28;10.80;99.90
59208;DHT22;44977;53.132;6.408;2022-11-15T17:49:29;10.80;99.90
59208;DHT22;44977;53.132;6.408;2022-11-15T17:54:29;10.90;99.90
59208;DHT22;44977;53.132;6.408;2022-11-15T17:59:30;10.90;99.90
59208;DHT22;44977;53.132;6.408;2022-11-15T18:04:31;10.80;99.90
59208;DHT22;44977;53.132;6.408;2022-11-15T18:09:32;10.90;99.90
59208;DHT22;44977;53.132;6.408;2022-11-15T18:14:32;10.90;99.90
59208;DHT22;44977;53.132;6.408;2022-11-15T18:19:33;10.90;99.90
59208;DHT22;44977;53.132;6.408;2022-11-15T18:24:35;10.90;99.90
59208;DHT22;44977;53.132;6.408;2022-11-15T18:29:37;10.90;99.90
59208;DHT22;44977;53.132;6.408;2022-11-15T18:34:38;10.90;99.90
59208;DHT22;44977;53.132;6.408;2022-11-15T18:39:39;10.90;99.90
59208;DHT22;44977;53.132;6.408;2022-11-15T18:44:39;11.00;99.90
59208;DHT22;44977;53.132;6.408;2022-11-15T18:49:40;11.00;99.90
59208;DHT22;44977;53.132;6.408;2022-11-15T18:54:41;11.00;99.90
59208;DHT22;44977;53.132;6.408;2022-11-15T18:59:41;10.90;99.90
59208;DHT22;44977;53.132;6.408;2022-11-15T19:04:42;11.00;99.90
59208;DHT22;44977;53.132;6.408;2022-11-15T19:09:43;11.00;99.90
59208;DHT22;44977;53.132;6.408;2022-11-15T19:14:44;11.00;99.90
59208;DHT22;44977;53.132;6.408;2022-11-15T19:19:44;11.00;99.90
59208;DHT22;44977;53.132;6.408;2022-11-15T19:24:45;11.00;99.90
59208;DHT22;44977;53.132;6.408;2022-11-15T19:29:45;11.00;99.90
59208;DHT22;44977;53.132;6.408;2022-11-15T19:34:46;11.00;99.90
59208;DHT22;44977;53.132;6.408;2022-11-15T19:39:47;11.00;99.90
59208;DHT22;44977;53.132;6.408;2022-11-15T19:44:47;11.00;99.90
59208;DHT22;44977;53.132;6.408;2022-11-15T19:49:48;11.00;99.90
59208;DHT22;44977;53.132;6.408;2022-11-15T19:54:49;11.10;99.90
59208;DHT22;44977;53.132;6.408;2022-11-15T19:59:49;11.10;99.90
59208;DHT22;44977;53.132;6.408;2022-11-15T20:04:50;11.10;99.90
59208;DHT22;44977;53.132;6.408;2022-11-15T20:09:51;11.10;99.90
59208;DHT22;44977;53.132;6.408;2022-11-15T20:14:52;11.10;99.90
59208;DHT22;44977;53.132;6.408;2022-11-15T20:19:52;11.10;99.90
59208;DHT22;44977;53.132;6.408;2022-11-15T20:24:53;11.10;99.90
59208;DHT22;44977;53.132;6.408;2022-11-15T20:29:53;11.10;99.90
59208;DHT22;44977;53.132;6.408;2022-11-15T20:34:54;11.10;99.90
59208;DHT22;44977;53.132;6.408;2022-11-15T20:39:55;11.10;99.90
59208;DHT22;44977;53.132;6.408;2022-11-15T20:44:55;11.10;99.90
59208;DHT22;44977;53.132;6.408;2022-11-15T20:49:56;11.00;99.90
59208;DHT22;44977;53.132;6.408;2022-11-15T20:54:57;11.00;99.90
59208;DHT22;44977;53.132;6.408;2022-11-15T20:59:58;11.00;99.90
59208;DHT22;44977;53.132;6.408;2022-11-15T21:04:58;10.90;99.90
59208;DHT22;44977;53.132;6.408;2022-11-15T21:09:59;10.90;99.90
59208;DHT22;44977;53.132;6.408;2022-11-15T21:15:18;10.80;99.90
59208;DHT22;44977;53.132;6.408;2022-11-15T21:20:19;10.70;99.90
59208;DHT22;44977;53.132;6.408;2022-11-15T21:25:20;10.70;99.90
59208;DHT22;44977;53.132;6.408;2022-11-15T21:30:22;10.70;99.90
59208;DHT22;44977;53.132;6.408;2022-11-15T21:35:23;10.70;99.90
59208;DHT22;44977;53.132;6.408;2022-11-15T21:40:24;10.60;99.90
59208;DHT22;44977;53.132;6.408;2022-11-15T21:45:25;10.60;99.90
59208;DHT22;44977;53.132;6.408;2022-11-15T21:50:25;10.60;99.90
59208;DHT22;44977;53.132;6.408;2022-11-15T21:55:26;10.60;99.90
59208;DHT22;44977;53.132;6.408;2022-11-15T22:00:27;10.60;99.90
59208;DHT22;44977;53.132;6.408;2022-11-15T22:05:46;10.50;99.90
59208;DHT22;44977;53.132;6.408;2022-11-15T22:10:48;10.50;99.90
59208;DHT22;44977;53.132;6.408;2022-11-15T22:15:48;10.50;99.90
59208;DHT22;44977;53.132;6.408;2022-11-15T22:20:57;10.50;99.90
59208;DHT22;44977;53.132;6.408;2022-11-15T22:25:58;10.50;99.90
59208;DHT22;44977;53.132;6.408;2022-11-15T22:31:00;10.50;99.90
59208;DHT22;44977;53.132;6.408;2022-11-15T22:36:01;10.50;99.90
59208;DHT22;44977;53.132;6.408;2022-11-15T22:41:03;10.50;99.90
59208;DHT22;44977;53.132;6.408;2022-11-15T22:46:04;10.50;99.90
59208;DHT22;44977;53.132;6.408;2022-11-15T22:51:05;10.50;99.90
59208;DHT22;44977;53.132;6.408;2022-11-15T22:56:08;10.50;99.90
59208;DHT22;44977;53.132;6.408;2022-11-15T23:01:18;10.50;99.90
59208;DHT22;44977;53.132;6.408;2022-11-15T23:06:19;10.50;99.90
59208;DHT22;44977;53.132;6.408;2022-11-15T23:11:20;10.50;99.90
59208;DHT22;44977;53.132;6.408;2022-11-15T23:16:39;10.50;99.90
59208;DHT22;44977;53.132;6.408;2022-11-15T23:21:43;10.50;99.90
59208;DHT22;44977;53.132;6.408;2022-11-15T23:27:05;10.50;99.90
59208;DHT22;44977;53.132;6.408;2022-11-15T23:32:07;10.50;99.90
59208;DHT22;44977;53.132;6.408;2022-11-15T23:37:26;10.50;99.90
59208;DHT22;44977;53.132;6.408;2022-11-15T23:42:27;10.60;99.90
59208;DHT22;44977;53.132;6.408;2022-11-15T23:47:28;10.60;99.90
59208;DHT22;44977;53.132;6.408;2022-11-15T23:52:29;10.60;99.90
59208;DHT22;44977;53.132;6.408;2022-11-15T23:57:29;10.60;99.90
